Terminal Aerodrome Forecast
Issued by NWS

Home | Current Version | Previous Version | Text Only | Print | Product List | Glossary On
Versions: 1 2 3 4 5 6 7 8 9 10 11 12 13 14 15
696
FTUS45 KMSO 300528 CCA
TAFSMN
TAF COR
KSMN 300528Z 3005/3106 00000KT P6SM -SHRA OVC012
     FM301600 33012G20KT 4SM -RA BKN010 OVC025
     FM302200 35012G20KT 3SM -RASN BR BKN006 OVC015
      AMD LTD TO CLD VIS AND WIND=

USA.gov is the U.S. government's official web portal to all federal, state and local government web resources and services.